createdAt,value
2022-09-22T00:01:50.358Z,6.50
2022-09-22T00:04:16.902Z,6.75
2022-09-22T00:06:51.328Z,6.90
2022-09-22T00:09:20.424Z,7.53
2022-09-22T00:11:49.915Z,9.32
2022-09-22T00:14:34.592Z,9.63
2022-09-22T00:17:02.239Z,7.78
2022-09-22T00:19:32.402Z,8.55
2022-09-22T00:21:59.735Z,7.45
2022-09-22T00:24:27.886Z,8.70
2022-09-22T00:26:57.316Z,9.07
2022-09-22T00:29:25.804Z,7.75
2022-09-22T00:31:52.539Z,8.82
2022-09-22T00:34:22.892Z,8.38
2022-09-22T00:36:50.286Z,9.00
2022-09-22T00:39:18.104Z,9.63
2022-09-22T00:41:47.403Z,6.97
2022-09-22T00:44:35.862Z,14.70
2022-09-22T00:47:02.429Z,11.63
2022-09-22T00:49:41.895Z,9.32
2022-09-22T00:52:09.792Z,4.80
2022-09-22T00:54:36.756Z,10.88
2022-09-22T00:57:16.563Z,9.60
2022-09-22T00:59:46.055Z,6.65
2022-09-22T01:02:12.708Z,10.50
2022-09-22T01:04:40.994Z,8.10
2022-09-22T01:07:08.002Z,7.90
2022-09-22T01:09:35.228Z,8.95
2022-09-22T01:12:04.139Z,9.50
2022-09-22T01:14:31.743Z,11.00
2022-09-22T01:17:03.356Z,9.43
2022-09-22T01:19:49.415Z,8.57
2022-09-22T01:22:18.809Z,9.27
2022-09-22T01:25:09.503Z,8.95
2022-09-22T01:27:48.583Z,10.55
2022-09-22T01:30:17.956Z,10.82
2022-09-22T01:32:50.267Z,13.85
2022-09-22T01:35:28.095Z,8.88
2022-09-22T01:38:15.132Z,8.23
2022-09-22T01:40:59.582Z,9.88
2022-09-22T01:43:40.349Z,11.70
2022-09-22T01:46:12.396Z,10.73
2022-09-22T01:48:43.165Z,11.10
2022-09-22T01:51:16.661Z,8.57
2022-09-22T01:53:55.595Z,12.10
2022-09-22T01:56:24.597Z,7.97
2022-09-22T01:58:58.991Z,11.68
2022-09-22T02:01:50.624Z,9.98
2022-09-22T02:04:23.846Z,13.50
2022-09-22T02:06:57.337Z,6.22
2022-09-22T02:09:27.020Z,8.27
2022-09-22T02:11:53.610Z,9.70
2022-09-22T02:14:20.330Z,9.95
2022-09-22T02:16:47.153Z,11.77
2022-09-22T02:19:23.251Z,7.97
2022-09-22T02:21:50.227Z,11.43
2022-09-22T02:24:37.815Z,10.38
2022-09-22T02:27:12.410Z,10.48
2022-09-22T02:29:51.681Z,8.60
2022-09-22T02:32:19.315Z,8.40
2022-09-22T02:34:47.175Z,9.68
2022-09-22T02:37:33.884Z,10.27
2022-09-22T02:40:10.173Z,8.65
2022-09-22T02:42:55.751Z,8.07
2022-09-22T02:45:29.396Z,10.20
2022-09-22T02:48:08.497Z,10.27
2022-09-22T02:50:35.755Z,11.30
2022-09-22T02:53:10.740Z,10.32
2022-09-22T02:55:37.505Z,8.27
2022-09-22T02:58:04.085Z,7.25
2022-09-22T03:00:31.234Z,9.75
2022-09-22T03:02:57.849Z,8.48
2022-09-22T03:05:24.692Z,9.30
2022-09-22T03:07:51.342Z,10.48
2022-09-22T03:10:18.399Z,11.85
2022-09-22T03:13:08.932Z,10.10
2022-09-22T03:15:32.137Z,9.85
2022-09-22T03:17:58.751Z,9.30
2022-09-22T03:20:25.401Z,9.88
2022-09-22T03:22:52.000Z,9.65
2022-09-22T03:25:18.822Z,8.27
2022-09-22T03:27:45.395Z,11.35
2022-09-22T03:30:12.442Z,8.15
2022-09-22T03:32:39.090Z,9.60
2022-09-22T03:35:06.830Z,11.05
2022-09-22T03:37:34.506Z,8.85
2022-09-22T03:40:01.805Z,8.60
2022-09-22T03:42:28.485Z,8.75
2022-09-22T03:44:55.215Z,10.60
2022-09-22T03:47:21.790Z,9.35
2022-09-22T03:49:48.916Z,8.57
2022-09-22T03:52:15.702Z,9.70
2022-09-22T03:54:42.323Z,11.63
2022-09-22T03:57:08.973Z,7.88
2022-09-22T03:59:35.622Z,12.45
2022-09-22T04:02:04.333Z,12.95
2022-09-22T04:04:32.430Z,9.25
2022-09-22T04:07:03.448Z,7.22
2022-09-22T04:09:33.495Z,10.43
2022-09-22T04:12:00.928Z,9.70
2022-09-22T04:14:27.720Z,9.32
2022-09-22T04:16:54.477Z,7.95
2022-09-22T04:19:21.173Z,8.88
2022-09-22T04:21:47.826Z,12.50
2022-09-22T04:24:14.465Z,9.35
2022-09-22T04:26:56.403Z,9.73
2022-09-22T04:29:27.831Z,8.35
2022-09-22T04:31:54.511Z,7.88
2022-09-22T04:34:21.188Z,8.70
2022-09-22T04:36:47.774Z,14.43
2022-09-22T04:39:14.342Z,8.98
2022-09-22T04:41:40.934Z,8.77
2022-09-22T04:44:07.571Z,10.23
2022-09-22T04:46:34.263Z,10.63
2022-09-22T04:49:01.000Z,10.00
2022-09-22T04:51:27.613Z,11.82
2022-09-22T04:53:54.198Z,11.48
2022-09-22T04:56:22.008Z,12.43
2022-09-22T04:58:48.614Z,8.10
2022-09-22T05:01:15.292Z,29.75
2022-09-22T05:03:42.014Z,20.60
2022-09-22T05:06:08.759Z,15.77
2022-09-22T05:08:35.847Z,15.50
2022-09-22T05:11:06.523Z,14.15
2022-09-22T05:13:33.091Z,11.32
2022-09-22T05:15:59.642Z,11.25
2022-09-22T05:18:26.462Z,10.57
2022-09-22T05:20:53.044Z,11.82
2022-09-22T05:23:19.693Z,9.73
2022-09-22T05:25:46.260Z,15.82
2022-09-22T05:28:13.464Z,13.27
2022-09-22T05:30:40.166Z,11.35
2022-09-22T05:33:06.882Z,11.75
2022-09-22T05:35:36.871Z,12.68
2022-09-22T05:38:03.967Z,10.85
2022-09-22T05:40:31.035Z,13.82
2022-09-22T05:42:58.017Z,13.82
2022-09-22T05:45:25.223Z,12.52
2022-09-22T05:47:53.187Z,9.80
2022-09-22T05:50:21.089Z,9.57
2022-09-22T05:52:48.135Z,10.68
2022-09-22T05:55:15.330Z,11.75
2022-09-22T05:57:43.687Z,24.52
2022-09-22T06:00:11.071Z,12.77
2022-09-22T06:02:38.143Z,14.85
2022-09-22T06:05:05.281Z,12.40
2022-09-22T06:07:32.524Z,11.10
2022-09-22T06:09:59.518Z,12.02
2022-09-22T06:12:26.534Z,14.82
2022-09-22T06:14:53.574Z,12.70
2022-09-22T06:17:20.600Z,13.43
2022-09-22T06:19:50.197Z,12.05
2022-09-22T06:22:18.099Z,17.90
2022-09-22T06:24:45.441Z,12.75
2022-09-22T06:27:12.588Z,11.23
2022-09-22T06:29:41.234Z,15.32
2022-09-22T06:32:09.055Z,13.82
2022-09-22T06:34:37.843Z,13.43
2022-09-22T06:37:08.094Z,11.43
2022-09-22T06:39:37.508Z,12.88
2022-09-22T06:42:05.358Z,12.48
2022-09-22T06:44:32.719Z,13.77
2022-09-22T06:46:59.808Z,14.88
2022-09-22T06:49:26.861Z,11.40
2022-09-22T06:51:54.636Z,12.15
2022-09-22T06:54:24.623Z,13.38
2022-09-22T06:56:52.489Z,11.07
2022-09-22T06:59:19.872Z,10.57
2022-09-22T07:01:47.197Z,12.02
2022-09-22T07:04:14.792Z,12.27
2022-09-22T07:06:42.615Z,10.20
2022-09-22T07:09:09.713Z,9.52
2022-09-22T07:11:40.066Z,12.63
2022-09-22T07:14:08.402Z,12.40
2022-09-22T07:16:36.374Z,11.07
2022-09-22T07:19:04.722Z,12.20
2022-09-22T07:21:38.144Z,15.00
2022-09-22T07:24:08.073Z,8.65
2022-09-22T07:26:36.480Z,9.40
2022-09-22T07:29:06.039Z,6.22
2022-09-22T07:31:34.772Z,6.65
2022-09-22T07:34:02.079Z,13.00
2022-09-22T07:36:30.409Z,9.57
2022-09-22T07:38:58.691Z,6.88
2022-09-22T07:41:30.029Z,9.80
2022-09-22T07:44:18.485Z,7.47
2022-09-22T07:46:45.879Z,8.57
2022-09-22T07:49:15.029Z,9.15
2022-09-22T07:51:42.211Z,8.73
2022-09-22T07:54:09.532Z,5.53
2022-09-22T07:56:40.009Z,6.10
2022-09-22T07:59:09.982Z,7.07
2022-09-22T08:01:37.944Z,6.50
2022-09-22T08:04:05.081Z,8.55
2022-09-22T08:06:34.917Z,7.60
2022-09-22T08:09:03.847Z,7.63
2022-09-22T08:11:31.417Z,10.00
2022-09-22T08:14:02.234Z,5.07
2022-09-22T08:16:30.963Z,9.13
2022-09-22T08:18:59.003Z,6.47
2022-09-22T08:21:26.514Z,5.55
2022-09-22T08:23:54.320Z,4.28
2022-09-22T08:26:21.964Z,7.40
2022-09-22T08:28:55.804Z,5.82
2022-09-22T08:33:52.058Z,4.53
2022-09-22T08:36:19.142Z,3.90
2022-09-22T08:38:48.557Z,5.15
2022-09-22T08:41:15.674Z,3.42
2022-09-22T08:43:47.113Z,4.07
2022-09-22T08:46:15.327Z,1.77
2022-09-22T08:49:02.424Z,3.90
2022-09-22T08:51:52.191Z,4.25
2022-09-22T08:54:31.670Z,3.97
2022-09-22T08:57:10.858Z,4.55
2022-09-22T08:59:42.694Z,5.25
2022-09-22T09:02:32.533Z,4.80
2022-09-22T09:05:11.822Z,3.92
2022-09-22T09:07:53.968Z,2.10
2022-09-22T09:10:21.096Z,3.70
2022-09-22T09:13:02.224Z,4.78
2022-09-22T09:15:37.407Z,3.15
2022-09-22T09:18:11.043Z,3.55
2022-09-22T09:20:39.982Z,6.43
2022-09-22T09:23:13.000Z,3.00
2022-09-22T09:25:43.773Z,5.57
2022-09-22T09:28:14.780Z,4.28
2022-09-22T09:30:52.880Z,3.67
2022-09-22T09:33:27.172Z,4.35
2022-09-22T09:35:54.455Z,6.47
2022-09-22T09:38:26.596Z,3.13
2022-09-22T09:41:08.622Z,2.97
2022-09-22T09:43:36.885Z,4.32
2022-09-22T09:46:09.825Z,3.83
2022-09-22T09:49:03.616Z,1.45
2022-09-22T09:51:30.380Z,2.83
2022-09-22T09:53:58.387Z,2.78
2022-09-22T09:56:28.485Z,3.58
2022-09-22T09:59:17.777Z,4.07
2022-09-22T10:01:47.271Z,4.07
2022-09-22T10:04:34.770Z,5.53
2022-09-22T10:07:16.993Z,3.15
2022-09-22T10:09:44.584Z,3.38
2022-09-22T10:12:32.548Z,2.53
2022-09-22T10:15:00.911Z,4.45
2022-09-22T10:17:33.880Z,1.95
2022-09-22T10:20:24.035Z,1.73
2022-09-22T10:22:50.732Z,1.65
2022-09-22T10:25:27.321Z,1.50
2022-09-22T10:28:02.975Z,4.32
2022-09-22T10:30:37.413Z,3.80
2022-09-22T10:33:21.167Z,2.03
2022-09-22T10:36:11.085Z,5.05
2022-09-22T10:38:43.679Z,3.75
2022-09-22T10:41:17.838Z,3.63
2022-09-22T10:44:37.646Z,5.13
2022-09-22T10:47:27.145Z,2.88
2022-09-22T10:50:13.245Z,3.08
2022-09-22T10:52:41.308Z,4.38
2022-09-22T10:55:18.181Z,3.63
2022-09-22T10:57:58.231Z,2.00
2022-09-22T11:00:26.506Z,4.05
2022-09-22T11:02:56.600Z,3.08
2022-09-22T11:06:01.958Z,5.32
2022-09-22T11:09:17.623Z,2.65
2022-09-22T11:12:17.398Z,2.60
2022-09-22T11:15:21.611Z,1.23
2022-09-22T11:17:56.983Z,4.32
2022-09-22T11:20:41.771Z,2.17
2022-09-22T11:23:27.754Z,2.95
2022-09-22T11:26:04.679Z,3.13
2022-09-22T11:28:40.864Z,1.02
2022-09-22T11:31:08.899Z,2.67
2022-09-22T11:33:51.210Z,1.83
2022-09-22T11:36:18.359Z,2.85
2022-09-22T11:38:51.562Z,2.88
2022-09-22T11:41:25.862Z,3.13
2022-09-22T11:44:11.267Z,3.85
2022-09-22T11:46:52.593Z,3.28
2022-09-22T11:49:28.460Z,2.08
2022-09-22T11:51:58.287Z,1.52
2022-09-22T11:54:34.357Z,1.55
2022-09-22T11:57:03.837Z,2.63
2022-09-22T11:59:33.549Z,2.22
2022-09-22T12:02:04.589Z,1.67
2022-09-22T12:04:54.983Z,1.92
2022-09-22T12:07:34.695Z,1.65
2022-09-22T12:10:03.984Z,2.75
2022-09-22T12:12:32.234Z,3.28
2022-09-22T12:15:16.973Z,1.40
2022-09-22T12:17:55.174Z,3.03
2022-09-22T12:20:45.204Z,1.80
2022-09-22T12:23:16.605Z,3.25
2022-09-22T12:25:49.247Z,2.25
2022-09-22T12:28:22.745Z,1.27
2022-09-22T12:31:04.993Z,3.08
2022-09-22T12:33:36.465Z,2.95
2022-09-22T12:36:04.488Z,1.88
2022-09-22T12:38:32.231Z,1.75
2022-09-22T12:41:03.962Z,2.70
2022-09-22T12:43:32.344Z,3.17
2022-09-22T12:46:00.595Z,2.00
2022-09-22T12:48:32.082Z,2.65
2022-09-22T12:51:17.757Z,4.43
2022-09-22T12:56:35.635Z,1.70
2022-09-22T12:59:02.665Z,1.08
2022-09-22T13:01:34.503Z,1.75
2022-09-22T13:04:20.491Z,2.90
2022-09-22T13:06:47.485Z,1.83
2022-09-22T13:09:22.518Z,3.95
2022-09-22T13:12:08.379Z,3.08
2022-09-22T13:14:58.432Z,2.67
2022-09-22T13:17:37.856Z,2.58
2022-09-22T13:20:15.158Z,3.25
2022-09-22T13:22:42.906Z,2.58
2022-09-22T13:25:17.611Z,3.00
2022-09-22T13:27:45.874Z,3.40
2022-09-22T13:30:16.057Z,5.50
2022-09-22T13:32:49.797Z,4.47
2022-09-22T13:35:26.939Z,1.73
2022-09-22T13:38:00.400Z,2.35
2022-09-22T13:40:29.364Z,3.58
2022-09-22T13:42:58.758Z,2.55
2022-09-22T13:45:27.385Z,3.33
2022-09-22T13:47:57.075Z,3.30
2022-09-22T13:50:24.855Z,1.65
2022-09-22T13:52:52.382Z,3.72
2022-09-22T13:55:24.544Z,1.90
2022-09-22T13:57:53.252Z,4.35
2022-09-22T14:00:41.387Z,1.27
2022-09-22T14:03:20.399Z,2.33
2022-09-22T14:05:53.671Z,3.83
2022-09-22T14:10:55.348Z,2.50
2022-09-22T14:13:55.752Z,1.60
2022-09-22T14:16:36.990Z,3.05
2022-09-22T14:19:16.878Z,4.07
2022-09-22T14:21:56.447Z,4.28
2022-09-22T14:24:23.944Z,1.65
2022-09-22T14:27:18.353Z,5.82
2022-09-22T14:32:30.628Z,2.42
2022-09-22T14:34:59.313Z,1.88
2022-09-22T14:37:41.709Z,2.88
2022-09-22T14:40:20.803Z,2.72
2022-09-22T14:43:05.575Z,3.30
2022-09-22T14:45:32.760Z,5.50
2022-09-22T14:48:20.488Z,3.35
2022-09-22T14:50:58.887Z,4.05
2022-09-22T14:53:33.264Z,3.10
2022-09-22T14:56:18.213Z,3.35
2022-09-22T14:58:50.787Z,2.40
2022-09-22T15:01:49.626Z,3.33
2022-09-22T15:04:26.806Z,2.10
2022-09-22T15:06:56.445Z,4.13
2022-09-22T15:09:31.600Z,4.15
2022-09-22T15:12:03.251Z,3.22
2022-09-22T15:14:41.399Z,3.42
2022-09-22T15:17:54.811Z,3.80
2022-09-22T15:20:24.791Z,9.07
2022-09-22T15:22:54.044Z,4.85
2022-09-22T15:25:21.687Z,2.00
2022-09-22T15:27:51.568Z,3.25
2022-09-22T15:30:18.363Z,1.88
2022-09-22T15:32:48.539Z,3.53
2022-09-22T15:35:17.623Z,3.22
2022-09-22T15:37:46.313Z,5.47
2022-09-22T15:40:20.489Z,8.20
2022-09-22T15:43:09.094Z,5.05
2022-09-22T15:45:37.161Z,2.83
2022-09-22T15:48:04.046Z,1.83
2022-09-22T15:50:30.998Z,5.28
2022-09-22T15:52:57.932Z,3.72
2022-09-22T15:55:25.225Z,2.92
2022-09-22T15:57:55.196Z,2.88
2022-09-22T16:00:28.494Z,5.50
2022-09-22T16:02:55.146Z,2.67
2022-09-22T16:05:22.644Z,3.00
2022-09-22T16:07:51.686Z,1.70
2022-09-22T16:10:22.684Z,3.90
2022-09-22T16:12:50.145Z,2.65
2022-09-22T16:15:17.461Z,3.42
2022-09-22T16:17:45.735Z,2.28
2022-09-22T16:20:15.018Z,1.27
2022-09-22T16:22:41.909Z,2.33
2022-09-22T16:25:11.107Z,1.83
2022-09-22T16:27:38.251Z,1.80
2022-09-22T16:30:05.650Z,1.48
2022-09-22T16:32:36.185Z,1.73
2022-09-22T16:35:03.681Z,3.13
2022-09-22T16:37:30.324Z,4.63
2022-09-22T16:39:56.918Z,3.38
2022-09-22T16:42:24.044Z,2.13
2022-09-22T16:44:50.879Z,4.50
2022-09-22T16:47:22.698Z,3.83
2022-09-22T16:49:51.145Z,6.18
2022-09-22T16:52:19.058Z,2.95
2022-09-22T16:54:46.264Z,7.60
2022-09-22T16:57:13.016Z,5.03
2022-09-22T16:59:39.663Z,2.67
2022-09-22T17:02:06.301Z,3.42
2022-09-22T17:04:33.018Z,5.10
2022-09-22T17:06:59.691Z,3.30
2022-09-22T17:09:26.898Z,5.35
2022-09-22T17:11:53.575Z,5.43
2022-09-22T17:14:21.540Z,2.60
2022-09-22T17:16:51.798Z,2.25
2022-09-22T17:19:26.633Z,3.17
2022-09-22T17:21:55.294Z,3.42
2022-09-22T17:24:23.261Z,4.07
2022-09-22T17:26:52.461Z,4.53
2022-09-22T17:29:26.362Z,3.90
2022-09-22T17:34:24.626Z,3.85
2022-09-22T17:36:52.418Z,3.97
2022-09-22T17:39:19.008Z,4.07
2022-09-22T17:41:46.615Z,2.10
2022-09-22T17:44:16.942Z,3.92
2022-09-22T17:47:01.924Z,2.50
2022-09-22T17:49:47.457Z,7.88
2022-09-22T17:52:34.669Z,4.38
2022-09-22T17:55:06.849Z,5.03
2022-09-22T17:57:36.546Z,9.88
2022-09-22T18:00:11.192Z,4.47
2022-09-22T18:02:38.878Z,6.32
2022-09-22T18:05:10.939Z,5.60
2022-09-22T18:07:40.196Z,4.55
2022-09-22T18:10:09.493Z,4.53
2022-09-22T18:12:36.650Z,6.93
2022-09-22T18:15:04.605Z,7.40
2022-09-22T18:17:41.127Z,5.53
2022-09-22T18:20:13.791Z,4.28
2022-09-22T18:22:41.686Z,6.88
2022-09-22T18:25:10.250Z,5.05
2022-09-22T18:27:37.995Z,4.72
2022-09-22T18:30:05.044Z,10.13
2022-09-22T18:32:31.755Z,5.03
2022-09-22T18:34:58.343Z,6.30
2022-09-22T18:37:26.268Z,8.77
2022-09-22T18:39:53.341Z,8.38
2022-09-22T18:42:24.009Z,6.50
2022-09-22T18:44:53.656Z,8.18
2022-09-22T18:47:21.733Z,12.00
2022-09-22T18:49:50.049Z,8.40
2022-09-22T18:52:17.579Z,9.00
2022-09-22T18:54:44.191Z,8.40
2022-09-22T18:57:14.128Z,8.30
2022-09-22T18:59:40.864Z,10.52
2022-09-22T19:02:11.644Z,11.25
2022-09-22T19:04:39.414Z,6.55
2022-09-22T19:07:24.557Z,6.55
2022-09-22T19:09:52.496Z,10.82
2022-09-22T19:12:20.342Z,11.60
2022-09-22T19:14:53.942Z,8.63
2022-09-22T19:17:20.590Z,8.73
2022-09-22T19:19:48.948Z,12.25
2022-09-22T19:22:16.219Z,13.15
2022-09-22T19:24:45.863Z,8.30
2022-09-22T19:27:15.062Z,7.93
2022-09-22T19:29:41.957Z,10.55
2022-09-22T19:32:08.893Z,12.23
2022-09-22T19:34:35.631Z,9.27
2022-09-22T19:37:02.269Z,7.88
2022-09-22T19:39:29.309Z,12.98
2022-09-22T19:41:55.991Z,12.63
2022-09-22T19:44:23.639Z,11.18
2022-09-22T19:46:50.805Z,9.50
2022-09-22T19:49:17.747Z,10.85
2022-09-22T19:51:44.851Z,11.25
2022-09-22T19:54:11.957Z,13.88
2022-09-22T19:56:39.136Z,13.52
2022-09-22T19:59:07.140Z,12.90
2022-09-22T20:01:40.134Z,12.60
2022-09-22T20:04:09.918Z,15.23
2022-09-22T20:06:36.502Z,12.15
2022-09-22T20:09:03.341Z,12.50
2022-09-22T20:11:41.191Z,14.57
2022-09-22T20:14:20.032Z,10.60
2022-09-22T20:17:00.548Z,12.57
2022-09-22T20:19:28.474Z,13.43
2022-09-22T20:22:16.779Z,12.38
2022-09-22T20:24:44.095Z,11.60
2022-09-22T20:27:10.688Z,15.65
2022-09-22T20:29:37.243Z,10.25
2022-09-22T20:32:04.292Z,11.75
2022-09-22T20:34:30.849Z,11.32
2022-09-22T20:36:57.403Z,12.25
2022-09-22T20:39:24.100Z,15.30
2022-09-22T20:41:50.695Z,11.25
2022-09-22T20:44:17.341Z,12.45
2022-09-22T20:46:46.735Z,10.52
2022-09-22T20:49:14.042Z,12.43
2022-09-22T20:51:42.066Z,12.57
2022-09-22T20:54:09.175Z,13.18
2022-09-22T20:56:38.401Z,11.85
2022-09-22T20:59:06.158Z,13.05
2022-09-22T21:01:34.173Z,14.73
2022-09-22T21:04:01.288Z,12.50
2022-09-22T21:06:27.929Z,13.63
2022-09-22T21:09:13.135Z,13.07
2022-09-22T21:11:39.782Z,12.68
2022-09-22T21:14:06.704Z,12.85
2022-09-22T21:16:35.721Z,11.60
2022-09-22T21:19:03.007Z,13.38
2022-09-22T21:21:31.321Z,11.75
2022-09-22T21:24:01.684Z,11.52
2022-09-22T21:26:29.624Z,10.15
2022-09-22T21:28:56.662Z,12.90
2022-09-22T21:31:23.460Z,13.80
2022-09-22T21:33:50.247Z,10.77
2022-09-22T21:36:19.237Z,10.23
2022-09-22T21:38:48.295Z,13.20
2022-09-22T21:41:20.524Z,11.13
2022-09-22T21:43:48.669Z,12.13
2022-09-22T21:46:18.172Z,14.88
2022-09-22T21:48:45.240Z,13.25
2022-09-22T21:51:19.505Z,11.90
2022-09-22T21:53:48.351Z,12.75
2022-09-22T21:56:16.991Z,10.30
2022-09-22T21:58:51.027Z,12.40
2022-09-22T22:01:20.099Z,11.50
2022-09-22T22:03:48.036Z,15.50
2022-09-22T22:06:20.447Z,13.80
2022-09-22T22:08:48.578Z,14.52
2022-09-22T22:11:26.352Z,10.55
2022-09-22T22:13:55.472Z,10.48
2022-09-22T22:16:25.078Z,14.20
2022-09-22T22:18:52.100Z,10.95
2022-09-22T22:21:22.643Z,11.00
2022-09-22T22:23:54.765Z,12.15
2022-09-22T22:26:23.644Z,12.35
2022-09-22T22:28:52.290Z,12.85
2022-09-22T22:31:23.026Z,11.60
2022-09-22T22:33:50.000Z,11.57
2022-09-22T22:36:18.293Z,11.75
2022-09-22T22:38:45.660Z,10.48
2022-09-22T22:41:14.474Z,9.85
2022-09-22T22:43:42.264Z,11.23
2022-09-22T22:46:11.151Z,9.13
2022-09-22T22:48:37.901Z,12.77
2022-09-22T22:51:19.193Z,9.70
2022-09-22T22:53:45.812Z,9.82
2022-09-22T22:56:25.199Z,10.15
2022-09-22T22:58:53.264Z,10.68
2022-09-22T23:01:22.938Z,9.38
2022-09-22T23:04:01.838Z,12.75
2022-09-22T23:06:34.448Z,8.77
2022-09-22T23:09:01.381Z,11.60
2022-09-22T23:11:30.779Z,11.32
2022-09-22T23:14:03.132Z,10.77
2022-09-22T23:16:34.801Z,13.82
2022-09-22T23:19:03.733Z,13.55
2022-09-22T23:21:30.378Z,14.90
2022-09-22T23:23:57.542Z,15.77
2022-09-22T23:26:24.152Z,10.93
2022-09-22T23:28:52.456Z,9.20
2022-09-22T23:31:21.985Z,14.55
2022-09-22T23:33:50.382Z,12.68
2022-09-22T23:36:22.797Z,11.57
2022-09-22T23:38:57.356Z,11.40
2022-09-22T23:41:24.544Z,10.80
2022-09-22T23:43:51.149Z,12.13
2022-09-22T23:46:18.036Z,11.30
2022-09-22T23:48:44.797Z,12.60
2022-09-22T23:51:11.379Z,10.65
2022-09-22T23:53:39.114Z,11.80
2022-09-22T23:56:07.776Z,11.43
2022-09-22T23:58:34.659Z,11.60
